Time;durP1;ratioP1;P1;durP2;ratioP2;P2;SDS_P1;SDS_P2;PMS_P1;PMS_P2;Temp;Humidity;BMP_temperature;BMP_pressure;BME280_temperature;BME280_humidity;BME280_pressure;Samples;Min_cycle;Max_cycle;Signal;HPM_P1;HPM_P2
2023/01/26 00:00:49;;;;;;;22.17;11.40;;;-0.90;99.90;;;;;;5095507;28;20197;-70
2023/01/26 00:03:16;;;;;;;18.20;9.37;;;-0.90;99.90;;;;;;5095390;28;20242;-70
2023/01/26 00:05:43;;;;;;;16.70;10.00;;;-0.90;99.90;;;;;;5095264;28;20192;-70
2023/01/26 00:08:11;;;;;;;19.60;9.97;;;-0.90;99.90;;;;;;5095164;28;20192;-70
2023/01/26 00:10:38;;;;;;;15.90;9.47;;;-0.80;99.90;;;;;;5094965;28;20664;-70
2023/01/26 00:13:06;;;;;;;18.77;10.53;;;-0.80;99.90;;;;;;5094970;28;20193;-69
2023/01/26 00:15:34;;;;;;;18.90;10.87;;;-0.70;99.90;;;;;;5095192;28;20222;-69
2023/01/26 00:18:01;;;;;;;20.53;10.57;;;-0.70;99.90;;;;;;5095028;28;20605;-69
2023/01/26 00:20:28;;;;;;;17.70;10.60;;;-0.70;99.90;;;;;;5095070;28;20238;-70
2023/01/26 00:22:55;;;;;;;21.73;11.37;;;-0.70;99.90;;;;;;5094955;28;20241;-69
2023/01/26 00:25:22;;;;;;;17.97;10.07;;;-0.70;99.90;;;;;;5094730;28;20196;-70
2023/01/26 00:27:48;;;;;;;18.97;10.33;;;-0.70;99.90;;;;;;5094902;28;20192;-70
2023/01/26 00:30:16;;;;;;;17.03;9.10;;;-0.70;99.90;;;;;;5094834;28;20220;-69
2023/01/26 00:32:44;;;;;;;17.97;10.13;;;-0.80;99.90;;;;;;5094787;28;20265;-69
2023/01/26 00:35:10;;;;;;;22.63;10.80;;;-0.80;99.90;;;;;;5094730;28;20230;-69
2023/01/26 00:37:37;;;;;;;21.10;10.73;;;-0.80;99.90;;;;;;5094609;28;20555;-70
2023/01/26 00:40:04;;;;;;;18.93;10.73;;;-0.80;99.90;;;;;;5094489;28;20205;-69
2023/01/26 00:42:31;;;;;;;19.80;10.23;;;-0.90;99.90;;;;;;5094641;28;20253;-69
2023/01/26 00:44:57;;;;;;;20.50;9.53;;;-0.90;99.90;;;;;;5094351;28;20200;-69
2023/01/26 00:47:24;;;;;;;17.13;9.13;;;-0.90;99.90;;;;;;5094498;28;20197;-70
2023/01/26 00:49:52;;;;;;;18.90;10.13;;;-0.90;99.90;;;;;;5094303;28;20201;-69
2023/01/26 00:52:19;;;;;;;18.57;9.53;;;-0.90;99.90;;;;;;5094409;28;20250;-70
2023/01/26 00:54:45;;;;;;;19.07;10.00;;;-0.80;99.90;;;;;;5094491;28;20204;-69
2023/01/26 00:57:12;;;;;;;17.40;9.97;;;-0.80;99.90;;;;;;5094305;28;20607;-69
2023/01/26 00:59:39;;;;;;;16.77;10.00;;;-0.80;99.90;;;;;;5094352;28;20246;-69
2023/01/26 01:02:05;;;;;;;19.43;10.63;;;-0.80;99.90;;;;;;5094196;28;20344;-69
2023/01/26 01:04:32;;;;;;;18.70;9.43;;;-0.80;99.90;;;;;;5094163;28;20253;-68
2023/01/26 01:07:00;;;;;;;19.13;10.13;;;-0.80;99.90;;;;;;5093992;28;20324;-69
2023/01/26 01:09:27;;;;;;;19.20;10.00;;;-0.80;99.90;;;;;;5093771;28;20212;-70
2023/01/26 01:11:53;;;;;;;17.37;10.10;;;-0.80;99.90;;;;;;5093955;28;20224;-68
2023/01/26 01:14:20;;;;;;;18.93;9.93;;;-0.80;99.90;;;;;;5093952;28;20192;-69
2023/01/26 01:16:46;;;;;;;17.73;10.07;;;-0.80;99.90;;;;;;5093868;28;20541;-69
2023/01/26 01:19:14;;;;;;;18.10;10.57;;;-0.80;99.90;;;;;;5093762;28;20197;-69
2023/01/26 01:21:41;;;;;;;19.37;9.90;;;-0.80;99.90;;;;;;5093594;28;20196;-68
2023/01/26 01:24:09;;;;;;;20.43;10.17;;;-0.80;99.90;;;;;;5093900;28;20200;-70
2023/01/26 01:26:36;;;;;;;19.80;10.73;;;-0.80;99.90;;;;;;5093740;28;20226;-69
2023/01/26 01:29:03;;;;;;;16.80;9.57;;;-0.80;99.90;;;;;;5093730;28;20253;-68
2023/01/26 01:31:29;;;;;;;18.30;10.37;;;-0.80;99.90;;;;;;5093571;28;20224;-69
2023/01/26 01:33:56;;;;;;;18.30;10.63;;;-0.90;99.90;;;;;;5093618;28;20200;-69
2023/01/26 01:36:24;;;;;;;19.57;11.00;;;-1.00;99.90;;;;;;5093451;28;20222;-69
2023/01/26 01:38:51;;;;;;;22.67;11.07;;;-0.90;99.90;;;;;;5093603;28;20222;-70
2023/01/26 01:41:21;;;;;;;21.77;10.40;;;-0.90;99.90;;;;;;5093653;28;20192;-69
2023/01/26 01:43:48;;;;;;;20.93;9.97;;;-0.80;99.90;;;;;;5093604;28;20273;-69
2023/01/26 01:46:21;;;;;;;20.17;9.70;;;-0.80;99.90;;;;;;5093510;28;20273;-69
2023/01/26 01:48:57;;;;;;;16.80;10.00;;;-0.90;99.90;;;;;;5093357;28;20253;-69
2023/01/26 01:51:31;;;;;;;17.83;9.73;;;-0.90;99.90;;;;;;5093272;28;20695;-69
2023/01/26 01:54:03;;;;;;;18.17;9.73;;;-1.00;99.90;;;;;;5093335;28;20324;-68
2023/01/26 01:56:33;;;;;;;18.57;9.50;;;-1.00;99.90;;;;;;5093007;28;20204;-69
2023/01/26 01:59:02;;;;;;;18.87;10.47;;;-1.00;99.90;;;;;;5092930;28;20687;-68
2023/01/26 02:01:29;;;;;;;19.97;10.23;;;-1.00;99.90;;;;;;5093079;28;20204;-69
2023/01/26 02:04:00;;;;;;;19.13;9.57;;;-1.00;99.90;;;;;;5093273;28;20249;-69
2023/01/26 02:06:33;;;;;;;17.57;9.73;;;-1.00;99.90;;;;;;5093074;28;20202;-69
2023/01/26 02:08:59;;;;;;;20.33;10.10;;;-1.00;99.90;;;;;;5092923;28;20200;-69
2023/01/26 02:11:31;;;;;;;18.73;9.97;;;-1.00;99.90;;;;;;5092993;28;20220;-69
2023/01/26 02:14:00;;;;;;;20.50;9.90;;;-1.00;99.90;;;;;;5093006;28;20643;-68
2023/01/26 02:16:27;;;;;;;17.63;10.33;;;-0.90;99.90;;;;;;5092812;28;20564;-69
2023/01/26 02:18:54;;;;;;;18.93;10.80;;;-0.90;99.90;;;;;;5092991;28;20197;-69
2023/01/26 02:21:22;;;;;;;19.07;9.67;;;-0.90;99.90;;;;;;5092780;28;20651;-69
2023/01/26 02:24:00;;;;;;;19.60;9.77;;;-0.90;99.90;;;;;;5092811;28;20196;-69
2023/01/26 02:26:30;;;;;;;19.80;10.37;;;-0.90;99.90;;;;;;5092773;28;20272;-69
2023/01/26 02:28:58;;;;;;;19.67;10.70;;;-1.00;99.90;;;;;;5092982;28;20192;-69
2023/01/26 02:31:26;;;;;;;21.77;10.60;;;-0.90;99.90;;;;;;5092613;28;20699;-69
2023/01/26 02:33:53;;;;;;;19.67;10.27;;;-1.00;99.90;;;;;;5092717;28;20601;-69
2023/01/26 02:36:23;;;;;;;19.60;10.30;;;-1.00;99.90;;;;;;5092712;28;20192;-68
2023/01/26 02:38:58;;;;;;;19.80;10.60;;;-1.00;99.90;;;;;;5092662;28;20204;-69
2023/01/26 02:44:11;;;;;;;19.47;9.63;;;-1.00;99.90;;;;;;5093011;28;20335;-68
2023/01/26 02:46:38;;;;;;;17.47;10.23;;;-1.10;99.90;;;;;;5092669;28;20291;-69
2023/01/26 02:51:49;;;;;;;17.50;9.83;;;-1.10;99.90;;;;;;5092921;28;20223;-69
2023/01/26 02:56:56;;;;;;;17.53;9.13;;;-1.00;99.90;;;;;;5092305;28;20556;-70
2023/01/26 02:59:24;;;;;;;21.10;10.63;;;-1.00;99.90;;;;;;5092518;28;20200;-69
2023/01/26 03:01:52;;;;;;;17.50;10.13;;;-1.00;99.90;;;;;;5092424;28;20545;-69
2023/01/26 03:04:19;;;;;;;18.87;10.37;;;-1.00;99.90;;;;;;5092664;28;20246;-69
2023/01/26 03:06:45;;;;;;;21.47;11.83;;;-1.00;99.90;;;;;;5092377;28;20723;-68
2023/01/26 03:09:12;;;;;;;21.10;10.67;;;-1.00;99.90;;;;;;5093256;28;20228;-70
2023/01/26 03:11:41;;;;;;;20.97;10.67;;;-1.00;99.90;;;;;;5096397;28;20220;-69
2023/01/26 03:14:08;;;;;;;20.20;11.03;;;-0.90;99.90;;;;;;5096214;28;20203;-69
2023/01/26 03:16:36;;;;;;;22.20;10.93;;;-1.00;99.90;;;;;;5096649;28;20269;-68
2023/01/26 03:27:27;;;;;;;19.87;10.20;;;-1.00;99.90;;;;;;5096267;28;20199;-69
2023/01/26 03:29:54;;;;;;;18.53;9.77;;;-1.00;99.90;;;;;;5096074;28;20199;-69
2023/01/26 03:32:22;;;;;;;18.83;10.37;;;-1.00;99.90;;;;;;5095788;28;20724;-69
2023/01/26 03:34:48;;;;;;;22.10;11.53;;;-1.00;99.90;;;;;;5095994;28;20677;-69
2023/01/26 03:37:15;;;;;;;21.43;11.47;;;-1.00;99.90;;;;;;5095914;28;20204;-69
2023/01/26 03:56:20;;;;;;;20.37;11.23;;;-1.00;99.90;;;;;;5033241;28;20216;-69
2023/01/26 03:58:49;;;;;;;22.47;11.43;;;-1.00;99.90;;;;;;5033093;28;20218;-69
2023/01/26 04:01:18;;;;;;;20.27;10.37;;;-1.00;99.90;;;;;;5090717;28;20197;-69
2023/01/26 04:09:16;;;;;;;21.07;10.27;;;-1.00;99.90;;;;;;5095190;28;20227;-69
2023/01/26 04:11:43;;;;;;;23.23;11.03;;;-1.00;99.90;;;;;;5095136;28;20224;-69
2023/01/26 04:22:25;;;;;;;21.27;10.80;;;-1.10;99.90;;;;;;5095080;28;20207;-69
2023/01/26 04:24:52;;;;;;;21.40;11.27;;;-1.10;99.90;;;;;;5095185;28;20196;-69
2023/01/26 04:27:19;;;;;;;18.63;10.37;;;-1.10;99.90;;;;;;5094713;28;20257;-69
2023/01/26 04:29:46;;;;;;;24.07;11.57;;;-1.20;99.90;;;;;;5094659;28;20584;-69
2023/01/26 04:32:12;;;;;;;21.07;11.13;;;-1.10;99.90;;;;;;5094865;28;20220;-69
2023/01/26 04:34:40;;;;;;;19.23;10.47;;;-1.20;99.90;;;;;;5094805;28;20203;-69
2023/01/26 04:37:08;;;;;;;23.07;11.37;;;-1.20;99.90;;;;;;5094720;28;20541;-69
2023/01/26 04:39:34;;;;;;;19.20;11.23;;;-1.20;99.90;;;;;;5094529;28;20204;-69
2023/01/26 04:42:01;;;;;;;21.70;10.93;;;-1.20;99.90;;;;;;5093681;28;20234;-69
2023/01/26 04:44:28;;;;;;;21.67;10.53;;;-1.10;99.90;;;;;;5094601;28;20253;-69
2023/01/26 04:46:54;;;;;;;19.77;10.17;;;-1.10;99.90;;;;;;5094584;28;20200;-68
2023/01/26 04:49:21;;;;;;;22.60;11.33;;;-1.20;99.90;;;;;;5094360;28;20204;-69
2023/01/26 04:51:49;;;;;;;19.40;10.47;;;-1.10;99.90;;;;;;5094286;28;20217;-69
2023/01/26 04:54:16;;;;;;;21.20;10.07;;;-1.10;99.90;;;;;;5094075;28;20651;-69
2023/01/26 04:56:42;;;;;;;20.53;10.30;;;-1.10;99.90;;;;;;5094401;28;20325;-69
2023/01/26 04:59:10;;;;;;;20.23;9.93;;;-1.10;99.90;;;;;;5094373;28;20200;-69
2023/01/26 05:01:37;;;;;;;23.30;11.00;;;-1.10;99.90;;;;;;5093965;28;20710;-69
2023/01/26 05:04:05;;;;;;;19.03;9.43;;;-1.20;99.90;;;;;;5094129;28;20192;-69
2023/01/26 05:06:32;;;;;;;18.10;9.90;;;-1.20;99.90;;;;;;5094202;28;20196;-69
2023/01/26 05:09:00;;;;;;;18.33;9.63;;;-1.20;99.90;;;;;;5094271;28;20246;-69
2023/01/26 05:11:26;;;;;;;19.53;9.57;;;-1.20;99.90;;;;;;5094069;28;20215;-69
2023/01/26 05:13:53;;;;;;;18.83;9.20;;;-1.20;99.90;;;;;;5093993;28;20196;-69
2023/01/26 05:16:20;;;;;;;18.30;9.50;;;-1.30;99.90;;;;;;5093807;28;20647;-69
2023/01/26 05:18:47;;;;;;;18.20;8.77;;;-1.30;99.90;;;;;;5093833;28;20245;-68
2023/01/26 05:21:14;;;;;;;23.47;10.10;;;-1.30;99.90;;;;;;5093769;28;20246;-70
2023/01/26 05:23:40;;;;;;;19.20;9.70;;;-1.30;99.90;;;;;;5093689;28;20218;-69
2023/01/26 05:26:08;;;;;;;20.40;10.03;;;-1.20;99.90;;;;;;5093926;28;20192;-69
2023/01/26 05:28:35;;;;;;;16.83;9.30;;;-1.20;99.90;;;;;;5094009;28;20242;-69
2023/01/26 05:31:02;;;;;;;20.93;10.77;;;-1.20;99.90;;;;;;5093456;28;20659;-69
2023/01/26 05:33:29;;;;;;;20.27;11.37;;;-1.20;99.90;;;;;;5093008;28;20230;-69
2023/01/26 05:35:55;;;;;;;18.03;10.00;;;-1.10;99.90;;;;;;5093536;28;20200;-69
2023/01/26 05:38:22;;;;;;;15.80;9.10;;;-1.10;99.90;;;;;;5093448;28;20533;-69
2023/01/26 05:40:48;;;;;;;15.70;9.17;;;-1.10;99.90;;;;;;5093583;28;20193;-70
2023/01/26 05:43:16;;;;;;;18.47;10.10;;;-1.10;99.90;;;;;;5093488;28;20205;-70
2023/01/26 05:45:43;;;;;;;15.57;8.93;;;-1.10;99.90;;;;;;5093420;28;20219;-70
2023/01/26 05:48:10;;;;;;;16.63;8.47;;;-1.10;99.90;;;;;;5093357;28;20249;-70
2023/01/26 05:50:36;;;;;;;16.70;8.20;;;-1.10;99.90;;;;;;5093207;28;20201;-69
2023/01/26 05:53:03;;;;;;;14.10;7.93;;;-1.10;99.90;;;;;;5093376;28;20588;-70
2023/01/26 05:55:30;;;;;;;15.27;8.40;;;-1.20;99.90;;;;;;5093283;28;20196;-70
2023/01/26 05:57:56;;;;;;;14.57;8.33;;;-1.10;99.90;;;;;;5093126;28;20200;-70
2023/01/26 06:00:24;;;;;;;14.50;8.20;;;-1.10;99.90;;;;;;5093042;28;20650;-70
2023/01/26 06:02:51;;;;;;;16.80;9.17;;;-1.10;99.90;;;;;;5093028;28;20200;-70
2023/01/26 06:05:18;;;;;;;12.77;7.83;;;-1.10;99.90;;;;;;5093526;28;20222;-70
2023/01/26 06:07:44;;;;;;;17.47;8.47;;;-1.10;99.90;;;;;;5093170;28;20200;-70
2023/01/26 06:10:11;;;;;;;15.97;8.63;;;-1.00;99.90;;;;;;5092934;28;20224;-70
2023/01/26 06:12:38;;;;;;;20.00;12.60;;;-1.10;99.90;;;;;;5092957;28;20220;-69
2023/01/26 06:15:06;;;;;;;45.03;25.60;;;-1.10;99.90;;;;;;5092843;28;20192;-68
2023/01/26 06:17:34;;;;;;;27.30;14.40;;;-1.10;99.90;;;;;;5093181;28;20200;-69
2023/01/26 06:20:01;;;;;;;16.00;10.30;;;-1.10;99.90;;;;;;5092846;28;20196;-70
2023/01/26 06:22:27;;;;;;;15.53;8.50;;;-1.10;99.90;;;;;;5092982;28;20196;-69
2023/01/26 06:24:54;;;;;;;13.83;7.30;;;-1.10;99.90;;;;;;5092891;28;20721;-69
2023/01/26 06:27:20;;;;;;;15.33;8.13;;;-1.10;99.90;;;;;;5092960;28;20250;-69
2023/01/26 06:29:47;;;;;;;12.90;7.57;;;-1.10;99.90;;;;;;5092834;28;20200;-69
2023/01/26 06:32:14;;;;;;;14.77;8.07;;;-1.10;99.90;;;;;;5092447;28;20212;-69
2023/01/26 06:34:42;;;;;;;16.53;8.40;;;-1.10;99.90;;;;;;5092728;28;20533;-69
2023/01/26 06:37:09;;;;;;;14.70;8.47;;;-1.10;99.90;;;;;;5092576;28;20648;-69
2023/01/26 06:39:36;;;;;;;14.90;8.87;;;-1.10;99.90;;;;;;5092601;28;20196;-69
2023/01/26 06:42:03;;;;;;;15.37;8.40;;;-1.10;99.90;;;;;;5092506;28;20303;-69
2023/01/26 06:44:29;;;;;;;15.37;8.03;;;-1.10;99.90;;;;;;5095609;28;20200;-70
2023/01/26 06:46:56;;;;;;;14.83;8.67;;;-1.10;99.90;;;;;;5096464;28;20644;-69
2023/01/26 06:49:22;;;;;;;18.60;7.80;;;-1.10;99.90;;;;;;5096858;28;20579;-69
2023/01/26 06:51:59;;;;;;;14.67;7.67;;;-1.10;99.90;;;;;;5096579;28;20261;-69
2023/01/26 06:54:25;;;;;;;16.43;7.87;;;-1.20;99.90;;;;;;5096435;28;20200;-69
2023/01/26 06:56:52;;;;;;;17.03;8.50;;;-1.20;99.90;;;;;;5096431;28;20369;-69
2023/01/26 06:59:18;;;;;;;14.63;7.73;;;-1.20;99.90;;;;;;5096309;28;20193;-69
2023/01/26 07:01:48;;;;;;;17.30;8.87;;;-1.20;99.90;;;;;;5096382;28;20253;-69
2023/01/26 07:04:15;;;;;;;15.90;9.00;;;-1.10;99.90;;;;;;5096403;28;20250;-69
2023/01/26 07:06:42;;;;;;;16.17;8.30;;;-1.10;99.90;;;;;;5096379;28;20193;-70
2023/01/26 07:09:10;;;;;;;14.43;7.47;;;-1.10;99.90;;;;;;5096140;28;20579;-69
2023/01/26 07:11:37;;;;;;;14.27;7.93;;;-1.10;99.90;;;;;;5096195;28;20200;-69
2023/01/26 07:14:03;;;;;;;17.20;9.00;;;-1.10;99.90;;;;;;5096354;28;20333;-69
2023/01/26 07:16:30;;;;;;;16.97;8.70;;;-1.20;99.90;;;;;;5096366;28;20196;-69
2023/01/26 07:18:57;;;;;;;16.13;9.03;;;-1.20;99.90;;;;;;5096297;28;20536;-69
2023/01/26 07:21:23;;;;;;;17.30;8.90;;;-1.20;99.90;;;;;;5096178;28;20196;-69
2023/01/26 07:23:50;;;;;;;17.20;7.50;;;-1.20;99.90;;;;;;5095993;28;20204;-69
2023/01/26 07:26:19;;;;;;;14.27;8.13;;;-1.20;99.90;;;;;;5095854;28;20287;-69
2023/01/26 07:28:45;;;;;;;14.13;7.83;;;-1.10;99.90;;;;;;5096085;28;20250;-69
2023/01/26 07:31:12;;;;;;;14.50;8.00;;;-1.10;99.90;;;;;;5095845;28;20664;-69
2023/01/26 07:33:39;;;;;;;17.57;8.13;;;-1.00;99.90;;;;;;5095799;28;20224;-69
2023/01/26 07:36:06;;;;;;;17.17;8.83;;;-1.00;99.90;;;;;;5095669;28;20593;-69
2023/01/26 07:38:33;;;;;;;15.33;8.30;;;-1.10;99.90;;;;;;5095803;28;20201;-69
2023/01/26 07:41:06;;;;;;;14.50;8.47;;;-1.00;99.90;;;;;;5095750;28;20196;-69
2023/01/26 07:43:34;;;;;;;16.90;9.07;;;-1.00;99.90;;;;;;5095816;28;20250;-70
2023/01/26 07:46:01;;;;;;;17.40;9.33;;;-1.00;99.90;;;;;;5095680;28;20196;-69
2023/01/26 07:48:29;;;;;;;16.10;8.73;;;-0.90;99.90;;;;;;5095470;28;20209;-69
2023/01/26 07:50:58;;;;;;;15.90;8.27;;;-1.00;99.90;;;;;;5095502;28;20283;-70
2023/01/26 07:53:27;;;;;;;15.03;8.50;;;-1.00;99.90;;;;;;5095212;28;20230;-70
2023/01/26 07:55:55;;;;;;;15.90;8.80;;;-1.00;99.90;;;;;;5094771;28;20200;-70
2023/01/26 07:58:21;;;;;;;13.80;7.77;;;-1.00;99.90;;;;;;5095993;28;20196;-70
2023/01/26 08:00:49;;;;;;;19.27;9.77;;;-1.00;99.90;;;;;;5095419;28;20265;-69
2023/01/26 08:03:16;;;;;;;17.13;8.80;;;-1.00;99.90;;;;;;5095349;28;20237;-70
2023/01/26 08:05:43;;;;;;;14.37;8.47;;;-1.00;99.90;;;;;;5095242;28;20793;-69
2023/01/26 08:08:09;;;;;;;30.97;14.17;;;-1.00;99.90;;;;;;5095166;28;20224;-69
2023/01/26 08:10:36;;;;;;;17.57;8.63;;;-1.10;99.90;;;;;;5095082;28;20274;-69
2023/01/26 08:13:03;;;;;;;15.23;9.03;;;-1.00;99.90;;;;;;5095321;28;20281;-69
2023/01/26 08:15:30;;;;;;;15.80;8.87;;;-1.00;99.90;;;;;;5095091;28;20720;-69
2023/01/26 08:17:59;;;;;;;16.13;8.97;;;-1.00;99.90;;;;;;5094959;28;20226;-69
2023/01/26 08:20:26;;;;;;;18.17;8.97;;;-1.00;99.90;;;;;;5094696;28;20555;-69
2023/01/26 08:22:53;;;;;;;25.53;9.77;;;-1.00;99.90;;;;;;5095067;28;20257;-69
2023/01/26 08:25:20;;;;;;;15.27;8.50;;;-1.00;99.90;;;;;;5095021;28;20651;-69
2023/01/26 08:27:47;;;;;;;17.23;9.10;;;-1.10;99.90;;;;;;5094870;28;20253;-68
2023/01/26 08:30:14;;;;;;;15.63;8.00;;;-1.00;99.90;;;;;;5094769;28;20257;-69
2023/01/26 08:32:41;;;;;;;17.43;7.83;;;-1.20;99.90;;;;;;5094744;28;20220;-69
2023/01/26 08:35:10;;;;;;;14.23;8.37;;;-1.20;99.90;;;;;;5094553;28;20196;-69
2023/01/26 08:37:36;;;;;;;14.00;7.97;;;-1.10;99.90;;;;;;5094891;28;20200;-71
2023/01/26 08:40:03;;;;;;;16.33;10.00;;;-1.00;99.90;;;;;;5094849;28;20253;-69
2023/01/26 08:42:30;;;;;;;16.80;8.83;;;-1.00;99.90;;;;;;5094610;28;20281;-69
2023/01/26 08:44:56;;;;;;;14.27;8.70;;;-0.90;99.90;;;;;;5094588;28;20192;-69
2023/01/26 08:47:23;;;;;;;14.90;8.10;;;-1.00;99.90;;;;;;5094429;28;20254;-69
2023/01/26 08:49:49;;;;;;;14.27;7.90;;;-0.90;99.90;;;;;;5094467;28;20196;-69
2023/01/26 08:52:17;;;;;;;17.03;8.73;;;-0.90;99.90;;;;;;5094284;28;20200;-68
2023/01/26 08:54:44;;;;;;;15.87;9.03;;;-0.90;99.90;;;;;;5094532;28;20193;-69
2023/01/26 08:57:11;;;;;;;16.10;8.90;;;-0.90;99.90;;;;;;5094523;28;20197;-69
2023/01/26 08:59:37;;;;;;;17.00;7.60;;;-0.90;99.90;;;;;;5094318;28;20283;-69
2023/01/26 09:02:04;;;;;;;17.17;9.57;;;-0.90;99.90;;;;;;5094218;28;20254;-69
2023/01/26 09:04:30;;;;;;;15.63;8.33;;;-0.90;99.90;;;;;;5094184;28;20547;-69
2023/01/26 09:06:57;;;;;;;13.83;8.10;;;-0.90;99.90;;;;;;5094328;28;20192;-70
2023/01/26 09:09:25;;;;;;;15.37;8.27;;;-0.90;99.90;;;;;;5094087;28;20278;-70
2023/01/26 09:11:54;;;;;;;15.27;8.37;;;-0.90;99.90;;;;;;5094008;28;20321;-70
2023/01/26 09:14:22;;;;;;;16.57;8.07;;;-1.00;99.90;;;;;;5094071;28;20220;-69
2023/01/26 09:16:49;;;;;;;13.77;7.80;;;-1.00;99.90;;;;;;5093885;28;20251;-70
2023/01/26 09:19:16;;;;;;;16.33;8.40;;;-1.00;99.90;;;;;;5093841;28;20660;-69
2023/01/26 09:21:42;;;;;;;14.30;8.30;;;-1.00;99.90;;;;;;5094056;28;20269;-70
2023/01/26 09:24:09;;;;;;;14.43;8.63;;;-1.00;99.90;;;;;;5093956;28;20200;-70
2023/01/26 09:26:37;;;;;;;20.33;8.83;;;-1.00;99.90;;;;;;5093865;28;20275;-69
2023/01/26 09:29:04;;;;;;;17.00;9.30;;;-1.00;99.90;;;;;;5093701;28;20204;-70
2023/01/26 09:31:31;;;;;;;19.27;9.83;;;-0.90;99.90;;;;;;5093709;28;20200;-70
2023/01/26 09:33:57;;;;;;;20.37;10.47;;;-0.90;99.90;;;;;;5093698;28;20224;-70
2023/01/26 09:36:24;;;;;;;17.10;9.93;;;-0.90;99.90;;;;;;5093656;28;20207;-70
2023/01/26 09:38:52;;;;;;;17.33;9.40;;;-0.80;99.90;;;;;;5093586;28;20226;-70
2023/01/26 09:41:43;;;;;;;17.17;9.20;;;-0.80;99.90;;;;;;5093890;28;20246;-69
2023/01/26 09:44:14;;;;;;;17.77;10.03;;;-0.80;99.90;;;;;;5093615;28;20250;-69
2023/01/26 09:46:52;;;;;;;15.47;8.47;;;-0.80;99.90;;;;;;5093541;28;20200;-70
2023/01/26 09:49:23;;;;;;;18.80;8.87;;;-0.90;99.90;;;;;;5093506;28;20196;-69
2023/01/26 09:51:55;;;;;;;21.50;9.40;;;-0.80;99.90;;;;;;5093499;28;20199;-69
2023/01/26 09:54:30;;;;;;;17.50;9.40;;;-0.80;99.90;;;;;;5093276;28;20220;-69
2023/01/26 09:57:01;;;;;;;19.00;8.30;;;-0.80;99.90;;;;;;5093225;28;20647;-69
2023/01/26 09:59:34;;;;;;;16.27;9.47;;;-0.80;99.90;;;;;;5093436;28;20192;-69
2023/01/26 10:02:10;;;;;;;17.63;8.93;;;-0.80;99.90;;;;;;5093345;28;20208;-69
2023/01/26 10:04:40;;;;;;;16.80;8.60;;;-0.80;99.90;;;;;;5093282;28;20249;-71
2023/01/26 10:07:11;;;;;;;14.97;8.20;;;-0.80;99.90;;;;;;5093390;28;20228;-70
2023/01/26 10:09:39;;;;;;;17.37;8.53;;;-0.90;99.90;;;;;;5093114;28;20254;-69
2023/01/26 10:12:15;;;;;;;13.70;7.93;;;-0.80;99.90;;;;;;5093147;28;20200;-70
2023/01/26 10:14:46;;;;;;;18.17;8.93;;;-0.80;99.90;;;;;;5093017;28;20223;-70
2023/01/26 10:17:17;;;;;;;14.93;7.80;;;-0.80;99.90;;;;;;5092995;28;20222;-69
2023/01/26 10:19:49;;;;;;;21.07;7.97;;;-0.80;99.90;;;;;;5092941;28;20273;-69
2023/01/26 10:22:23;;;;;;;14.97;8.30;;;-0.80;99.90;;;;;;5093031;28;20246;-69
2023/01/26 10:24:51;;;;;;;15.70;8.80;;;-0.80;99.90;;;;;;5092853;28;20200;-69
2023/01/26 10:27:19;;;;;;;15.57;8.53;;;-0.80;99.90;;;;;;5092813;28;20269;-68
2023/01/26 10:29:46;;;;;;;15.20;8.23;;;-0.90;99.90;;;;;;5092710;28;20257;-69
2023/01/26 10:32:14;;;;;;;15.83;8.40;;;-0.80;99.90;;;;;;5092941;28;20191;-69
2023/01/26 10:34:41;;;;;;;15.23;7.93;;;-0.90;99.90;;;;;;5092671;28;20715;-69
2023/01/26 10:37:20;;;;;;;16.30;8.50;;;-0.90;99.90;;;;;;5092889;28;20559;-70
2023/01/26 10:40:00;;;;;;;13.27;8.40;;;-0.90;99.90;;;;;;5092719;28;20551;-69
2023/01/26 10:42:31;;;;;;;18.77;9.67;;;-0.80;99.90;;;;;;5092887;28;20203;-70
2023/01/26 10:45:00;;;;;;;15.17;8.47;;;-0.80;99.90;;;;;;5092805;28;20204;-69
2023/01/26 10:47:28;;;;;;;17.53;9.57;;;-0.70;99.90;;;;;;5092635;28;20630;-69
2023/01/26 10:50:15;;;;;;;19.80;9.67;;;-0.80;99.90;;;;;;5092709;28;20201;-69
2023/01/26 10:52:57;;;;;;;20.43;12.07;;;-0.90;99.90;;;;;;5092504;28;20249;-69
2023/01/26 10:55:23;;;;;;;24.37;11.23;;;-0.90;99.90;;;;;;5092607;28;20732;-69
2023/01/26 10:57:52;;;;;;;19.13;9.47;;;-0.70;99.90;;;;;;5092721;28;20193;-69
2023/01/26 11:00:27;;;;;;;24.03;11.53;;;-0.60;99.90;;;;;;5092574;28;20333;-69
2023/01/26 11:02:56;;;;;;;20.33;10.37;;;-0.60;99.90;;;;;;5092534;28;20222;-69
2023/01/26 11:05:23;;;;;;;22.80;10.83;;;-0.70;99.90;;;;;;5092386;28;20595;-69
2023/01/26 11:07:54;;;;;;;25.03;12.90;;;-0.90;99.90;;;;;;5092605;28;20192;-69
2023/01/26 11:10:26;;;;;;;23.50;12.40;;;-0.90;99.90;;;;;;5092424;28;20235;-69
2023/01/26 11:13:13;;;;;;;26.83;12.60;;;-0.90;99.90;;;;;;5092274;28;20777;-69
2023/01/26 11:15:41;;;;;;;29.33;12.77;;;-1.00;99.90;;;;;;5092257;28;20249;-69
2023/01/26 11:18:19;;;;;;;32.67;15.20;;;-1.00;99.90;;;;;;5092512;28;20196;-68
2023/01/26 11:20:57;;;;;;;27.13;13.33;;;-1.00;99.90;;;;;;5092496;28;20196;-69
2023/01/26 11:23:45;;;;;;;26.03;13.10;;;-1.00;99.90;;;;;;5092555;28;20204;-69
2023/01/26 11:27:03;;;;;;;29.23;13.43;;;-1.00;99.90;;;;;;5092695;28;20196;-69
2023/01/26 11:29:52;;;;;;;29.03;13.77;;;-1.10;99.90;;;;;;5029943;28;20562;-69
2023/01/26 11:32:26;;;;;;;33.03;14.70;;;-1.00;99.90;;;;;;5033640;28;20665;-69
2023/01/26 11:35:03;;;;;;;32.83;14.77;;;-1.00;99.90;;;;;;5072810;28;20235;-69
2023/01/26 11:37:43;;;;;;;34.03;15.03;;;-1.00;99.90;;;;;;5096066;28;20262;-68
2023/01/26 11:40:24;;;;;;;36.63;16.77;;;-0.90;99.90;;;;;;5096134;28;20196;-69
2023/01/26 11:43:07;;;;;;;38.93;19.23;;;-0.90;99.90;;;;;;5095810;28;21062;-69
2023/01/26 11:45:48;;;;;;;33.60;16.13;;;-0.90;99.90;;;;;;5095818;28;20303;-69
2023/01/26 11:48:25;;;;;;;33.37;16.57;;;-0.90;99.90;;;;;;5095800;28;20245;-69
2023/01/26 11:50:57;;;;;;;36.67;17.10;;;-0.90;99.90;;;;;;5095544;28;20253;-69
2023/01/26 11:53:51;;;;;;;43.47;17.73;;;-1.10;99.90;;;;;;5095745;28;20274;-69
2023/01/26 11:56:26;;;;;;;35.60;15.23;;;-1.00;99.90;;;;;;5095825;28;20192;-69
2023/01/26 11:58:57;;;;;;;36.93;16.30;;;-1.10;99.90;;;;;;5095728;28;20581;-69
2023/01/26 12:01:29;;;;;;;38.80;16.30;;;-1.10;99.90;;;;;;5095342;28;20204;-69
2023/01/26 12:03:56;;;;;;;34.70;15.67;;;-1.10;99.90;;;;;;5095565;28;20196;-69
2023/01/26 12:06:30;;;;;;;36.87;17.10;;;-1.10;99.90;;;;;;5095175;28;20656;-69
2023/01/26 12:09:02;;;;;;;32.43;16.37;;;-1.10;99.90;;;;;;5095130;28;20246;-69
2023/01/26 12:11:34;;;;;;;36.20;17.00;;;-1.10;99.90;;;;;;5095261;28;20254;-69
2023/01/26 12:14:07;;;;;;;31.10;14.60;;;-1.10;99.90;;;;;;5095316;28;20212;-69
2023/01/26 12:16:44;;;;;;;36.53;16.43;;;-1.10;99.90;;;;;;5095256;28;20200;-69
2023/01/26 12:19:20;;;;;;;31.57;15.27;;;-1.10;99.90;;;;;;5095207;28;20227;-70
2023/01/26 12:21:49;;;;;;;32.37;14.93;;;-1.10;99.90;;;;;;5095105;28;20195;-70
2023/01/26 12:24:20;;;;;;;29.83;13.97;;;-1.10;99.90;;;;;;5095071;28;20196;-70
2023/01/26 12:26:50;;;;;;;29.77;13.27;;;-1.00;99.90;;;;;;5095084;28;20675;-70
2023/01/26 12:29:24;;;;;;;28.20;13.47;;;-0.90;99.90;;;;;;5095098;28;20230;-70
2023/01/26 12:31:56;;;;;;;23.67;12.47;;;-0.80;99.90;;;;;;5094969;28;20651;-69
2023/01/26 12:34:26;;;;;;;27.57;13.97;;;-0.70;99.90;;;;;;5094768;28;20265;-69
2023/01/26 12:37:13;;;;;;;26.53;13.63;;;-0.70;99.90;;;;;;5094897;28;20192;-69
2023/01/26 12:39:44;;;;;;;34.63;15.93;;;-0.80;99.90;;;;;;5094787;28;20237;-68
2023/01/26 12:42:18;;;;;;;32.97;14.90;;;-0.80;99.90;;;;;;5094304;28;20205;-69
2023/01/26 12:44:51;;;;;;;29.27;14.70;;;-0.80;99.90;;;;;;5094485;28;20195;-68
2023/01/26 12:47:27;;;;;;;35.30;15.10;;;-1.00;99.90;;;;;;5094242;28;20200;-68
2023/01/26 12:49:59;;;;;;;29.13;14.17;;;-1.00;99.90;;;;;;5094641;28;20200;-68
2023/01/26 12:52:31;;;;;;;28.60;13.57;;;-0.90;99.90;;;;;;5094456;28;20269;-69
2023/01/26 12:55:02;;;;;;;30.00;14.53;;;-0.90;99.90;;;;;;5094331;28;20242;-69
2023/01/26 12:57:36;;;;;;;29.20;13.83;;;-0.80;99.90;;;;;;5094280;28;20193;-70
2023/01/26 13:00:07;;;;;;;36.57;17.17;;;-0.70;99.90;;;;;;5094519;28;20196;-69
2023/01/26 13:02:36;;;;;;;45.33;21.07;;;-0.70;99.90;;;;;;5094207;28;20720;-69
2023/01/26 13:05:06;;;;;;;49.63;20.57;;;-0.80;99.90;;;;;;5094225;28;20236;-69
2023/01/26 13:07:35;;;;;;;28.93;13.93;;;-0.90;99.90;;;;;;5094092;28;20228;-69
2023/01/26 13:10:24;;;;;;;29.33;14.37;;;-0.90;99.90;;;;;;5094280;28;20281;-69
2023/01/26 13:12:53;;;;;;;26.53;13.80;;;-1.10;99.90;;;;;;5091430;28;20238;-68
2023/01/26 13:15:22;;;;;;;29.03;13.67;;;-1.00;99.90;;;;;;5093829;28;20220;-70
2023/01/26 13:17:53;;;;;;;28.73;14.47;;;-1.00;99.90;;;;;;5093845;28;20196;-70
2023/01/26 13:20:26;;;;;;;26.97;13.23;;;-0.90;99.90;;;;;;5093887;28;20200;-70
2023/01/26 13:22:53;;;;;;;28.87;13.17;;;-1.00;99.90;;;;;;5093835;28;20215;-69
2023/01/26 13:25:30;;;;;;;31.43;14.90;;;-0.90;99.90;;;;;;5093940;28;20230;-69
2023/01/26 13:27:57;;;;;;;28.33;14.37;;;-0.80;99.90;;;;;;5093830;28;20192;-69
2023/01/26 13:30:34;;;;;;;27.27;13.63;;;-0.80;99.90;;;;;;5093655;28;20552;-69